createdAt,value
2018-02-20T00:00:04.948Z,26.60
2018-02-20T00:01:05.061Z,27.30
2018-02-20T00:02:05.379Z,29.00
2018-02-20T00:03:05.699Z,26.30
2018-02-20T00:04:06.018Z,28.20
2018-02-20T00:05:06.342Z,24.90
2018-02-20T00:06:06.656Z,27.40
2018-02-20T00:07:06.971Z,26.60
2018-02-20T00:08:07.289Z,28.10
2018-02-20T00:09:07.603Z,24.90
2018-02-20T00:10:07.926Z,26.30
2018-02-20T00:11:08.031Z,29.90
2018-02-20T00:12:08.348Z,27.10
2018-02-20T00:13:08.673Z,29.60
2018-02-20T00:14:08.993Z,28.70
2018-02-20T00:15:09.313Z,27.80
2018-02-20T00:16:09.636Z,29.50
2018-02-20T00:17:09.956Z,28.40
2018-02-20T00:18:10.277Z,25.90
2018-02-20T00:19:10.603Z,26.40
2018-02-20T00:20:10.717Z,28.70
2018-02-20T00:21:10.824Z,27.30
2018-02-20T00:22:11.143Z,29.00
2018-02-20T00:23:11.463Z,28.90
2018-02-20T00:24:11.784Z,26.40
2018-02-20T00:25:12.104Z,28.70
2018-02-20T00:26:12.432Z,28.10
2018-02-20T00:27:12.745Z,29.90
2018-02-20T00:28:13.060Z,27.30
2018-02-20T00:29:13.374Z,28.70
2018-02-20T00:30:13.692Z,27.40
2018-02-20T00:31:13.806Z,28.90
2018-02-20T00:32:14.114Z,26.80
2018-02-20T00:33:14.438Z,28.20
2018-02-20T00:34:14.761Z,27.50
2018-02-20T00:35:15.140Z,27.50
2018-02-20T00:36:15.248Z,29.50
2018-02-20T00:37:15.567Z,30.30
2018-02-20T00:38:15.898Z,29.40
2018-02-20T00:39:16.208Z,26.50
2018-02-20T00:40:16.527Z,24.10
2018-02-20T00:41:16.839Z,28.70
2018-02-20T00:42:17.154Z,29.50
2018-02-20T00:43:17.470Z,27.50
2018-02-20T00:44:17.787Z,27.40
2018-02-20T00:45:18.096Z,28.90
2018-02-20T00:46:18.424Z,30.40
2018-02-20T00:47:18.732Z,29.20
2018-02-20T00:48:19.046Z,27.30
2018-02-20T00:49:19.370Z,29.50
2018-02-20T00:50:19.486Z,26.60
2018-02-20T00:51:19.799Z,29.60
2018-02-20T00:52:20.163Z,28.70
2018-02-20T00:53:20.432Z,30.30
2018-02-20T00:54:20.752Z,29.80
2018-02-20T00:55:21.073Z,27.40
2018-02-20T00:56:21.394Z,30.40
2018-02-20T00:57:21.714Z,31.20
2018-02-20T00:58:22.047Z,29.80
2018-02-20T00:59:22.158Z,29.40
2018-02-20T01:00:22.267Z,27.30
2018-02-20T01:01:22.383Z,28.80
2018-02-20T01:02:22.703Z,29.40
2018-02-20T01:03:23.024Z,29.30
2018-02-20T01:04:23.352Z,27.80
2018-02-20T01:05:23.666Z,28.60
2018-02-20T01:06:23.981Z,30.60
2018-02-20T01:07:24.295Z,29.40
2018-02-20T01:08:24.611Z,30.90
2018-02-20T01:09:24.926Z,28.80
2018-02-20T01:10:25.245Z,30.10
2018-02-20T01:11:25.554Z,28.80
2018-02-20T01:12:25.879Z,30.10
2018-02-20T01:13:26.198Z,29.00
2018-02-20T01:14:26.520Z,29.90
2018-02-20T01:15:26.843Z,27.80
2018-02-20T01:16:27.162Z,28.60
2018-02-20T01:17:27.485Z,29.10
2018-02-20T01:18:27.805Z,28.70
2018-02-20T01:19:28.134Z,27.20
2018-02-20T01:20:28.242Z,28.70
2018-02-20T01:21:28.354Z,26.50
2018-02-20T01:22:28.674Z,28.80
2018-02-20T01:23:28.998Z,28.10
2018-02-20T01:24:29.315Z,28.20
2018-02-20T01:25:29.638Z,27.60
2018-02-20T01:26:29.960Z,28.30
2018-02-20T01:27:30.276Z,30.80
2018-02-20T01:28:30.590Z,30.00
2018-02-20T01:29:30.906Z,31.00
2018-02-20T01:30:31.225Z,28.50
2018-02-20T01:31:31.549Z,26.40
2018-02-20T01:32:31.656Z,28.20
2018-02-20T01:33:31.976Z,28.80
2018-02-20T01:34:32.295Z,31.40
2018-02-20T01:35:32.616Z,29.20
2018-02-20T01:36:32.936Z,32.30
2018-02-20T01:37:33.258Z,30.80
2018-02-20T01:38:33.577Z,28.90
2018-02-20T01:39:33.907Z,30.60
2018-02-20T01:40:34.019Z,30.00
2018-02-20T01:41:34.128Z,31.20
2018-02-20T01:42:34.448Z,31.80
2018-02-20T01:43:34.783Z,33.80
2018-02-20T01:44:34.888Z,31.70
2018-02-20T01:45:35.215Z,30.70
2018-02-20T01:46:35.533Z,32.70
2018-02-20T01:47:35.846Z,30.30
2018-02-20T01:48:36.160Z,34.90
2018-02-20T01:49:36.472Z,30.80
2018-02-20T01:50:36.802Z,31.70
2018-02-20T01:51:36.904Z,35.10
2018-02-20T01:52:37.234Z,29.40
2018-02-20T01:53:37.342Z,30.30
2018-02-20T01:54:37.663Z,30.10
2018-02-20T01:55:37.983Z,31.80
2018-02-20T01:56:38.304Z,30.40
2018-02-20T01:57:38.627Z,31.90
2018-02-20T01:58:38.946Z,30.80
2018-02-20T01:59:39.273Z,29.70
2018-02-20T02:00:39.382Z,29.50
2018-02-20T02:01:39.704Z,33.00
2018-02-20T02:02:40.025Z,28.70
2018-02-20T02:03:40.346Z,30.40
2018-02-20T02:04:40.666Z,31.30
2018-02-20T02:05:40.994Z,32.90
2018-02-20T02:06:41.304Z,30.80
2018-02-20T02:07:41.620Z,31.30
2018-02-20T02:08:41.932Z,32.70
2018-02-20T02:09:42.258Z,32.30
2018-02-20T02:10:42.566Z,32.50
2018-02-20T02:11:42.890Z,32.70
2018-02-20T02:12:43.208Z,29.30
2018-02-20T02:13:43.524Z,30.70
2018-02-20T02:14:43.844Z,32.20
2018-02-20T02:15:44.166Z,33.00
2018-02-20T02:16:44.486Z,31.80
2018-02-20T02:17:44.805Z,32.10
2018-02-20T02:18:45.126Z,30.90
2018-02-20T02:19:45.456Z,31.00
2018-02-20T02:20:45.567Z,32.60
2018-02-20T02:21:45.889Z,32.00
2018-02-20T02:22:46.210Z,29.30
2018-02-20T02:23:46.533Z,29.10
2018-02-20T02:24:46.849Z,30.90
2018-02-20T02:25:47.174Z,29.40
2018-02-20T02:26:47.491Z,31.20
2018-02-20T02:27:47.803Z,31.80
2018-02-20T02:28:48.121Z,32.50
2018-02-20T02:29:48.433Z,32.00
2018-02-20T02:30:48.752Z,31.40
2018-02-20T02:31:49.073Z,30.70
2018-02-20T02:32:49.397Z,32.00
2018-02-20T02:33:49.714Z,30.90
2018-02-20T02:34:50.035Z,30.70
2018-02-20T02:35:50.355Z,31.20
2018-02-20T02:36:50.677Z,29.90
2018-02-20T02:37:50.999Z,31.80
2018-02-20T02:38:51.327Z,30.90
2018-02-20T02:39:51.441Z,31.10
2018-02-20T02:40:51.752Z,28.40
2018-02-20T02:41:52.080Z,32.30
2018-02-20T02:42:52.186Z,32.20
2018-02-20T02:43:52.549Z,29.50
2018-02-20T02:44:52.821Z,33.10
2018-02-20T02:45:53.143Z,31.50
2018-02-20T02:46:53.469Z,31.40
2018-02-20T02:47:53.783Z,34.40
2018-02-20T02:48:54.098Z,34.90
2018-02-20T02:49:54.411Z,32.20
2018-02-20T02:50:54.733Z,33.50
2018-02-20T02:51:54.844Z,31.20
2018-02-20T02:52:55.162Z,31.70
2018-02-20T02:53:55.483Z,31.90
2018-02-20T02:54:55.804Z,32.00
2018-02-20T02:55:56.134Z,30.90
2018-02-20T02:56:56.430Z,30.80
2018-02-20T02:57:56.751Z,30.90
2018-02-20T02:58:57.072Z,33.10
2018-02-20T02:59:57.393Z,31.20
2018-02-20T03:00:57.713Z,32.30
2018-02-20T03:01:58.040Z,30.10
2018-02-20T03:02:58.365Z,33.70
2018-02-20T03:03:58.474Z,33.10
2018-02-20T03:04:58.793Z,34.50
2018-02-20T03:05:59.115Z,35.50
2018-02-20T03:06:59.435Z,31.40
2018-02-20T03:07:59.765Z,35.50
2018-02-20T03:09:00.081Z,30.90
2018-02-20T03:10:00.395Z,30.30
2018-02-20T03:11:00.706Z,34.20
2018-02-20T03:12:01.019Z,30.90
2018-02-20T03:13:01.341Z,30.40
2018-02-20T03:14:01.664Z,33.10
2018-02-20T03:15:01.980Z,32.10
2018-02-20T03:16:02.304Z,33.20
2018-02-20T03:17:02.410Z,31.10
2018-02-20T03:18:02.731Z,30.50
2018-02-20T03:19:03.052Z,31.60
2018-02-20T03:20:03.374Z,30.50
2018-02-20T03:21:03.694Z,33.20
2018-02-20T03:22:04.024Z,32.70
2018-02-20T03:23:04.137Z,32.60
2018-02-20T03:24:04.247Z,33.00
2018-02-20T03:25:04.564Z,33.30
2018-02-20T03:26:04.885Z,31.70
2018-02-20T03:27:05.205Z,34.00
2018-02-20T03:28:05.527Z,32.50
2018-02-20T03:29:05.845Z,32.70
2018-02-20T03:30:06.166Z,34.30
2018-02-20T03:31:06.482Z,31.80
2018-02-20T03:32:06.796Z,31.80
2018-02-20T03:33:07.108Z,33.60
2018-02-20T03:34:07.432Z,34.50
2018-02-20T03:35:07.755Z,34.80
2018-02-20T03:36:07.863Z,32.50
2018-02-20T03:37:08.183Z,33.60
2018-02-20T03:38:08.504Z,33.50
2018-02-20T03:39:08.823Z,33.50
2018-02-20T03:40:09.148Z,31.90
2018-02-20T03:41:09.468Z,36.30
2018-02-20T03:42:09.799Z,35.70
2018-02-20T03:43:09.916Z,32.30
2018-02-20T03:44:10.025Z,32.50
2018-02-20T03:45:10.345Z,31.80
2018-02-20T03:46:10.665Z,34.10
2018-02-20T03:47:10.987Z,32.70
2018-02-20T03:48:11.318Z,34.40
2018-02-20T03:49:11.628Z,32.70
2018-02-20T03:50:11.944Z,34.20
2018-02-20T03:51:12.258Z,31.50
2018-02-20T03:52:12.572Z,36.80
2018-02-20T03:53:12.895Z,31.50
2018-02-20T03:54:13.257Z,34.30
2018-02-20T03:55:13.340Z,32.90
2018-02-20T03:56:13.661Z,33.80
2018-02-20T03:57:13.982Z,33.90
2018-02-20T03:58:14.302Z,34.80
2018-02-20T03:59:14.630Z,31.50
2018-02-20T04:00:14.754Z,33.60
2018-02-20T04:01:14.862Z,32.80
2018-02-20T04:02:15.181Z,33.80
2018-02-20T04:03:15.505Z,30.90
2018-02-20T04:04:15.837Z,34.40
2018-02-20T04:05:16.152Z,33.30
2018-02-20T04:06:16.458Z,31.40
2018-02-20T04:07:16.774Z,33.70
2018-02-20T04:08:17.090Z,31.80
2018-02-20T04:09:17.401Z,31.80
2018-02-20T04:10:17.720Z,35.50
2018-02-20T04:11:18.041Z,32.70
2018-02-20T04:12:18.355Z,32.10
2018-02-20T04:13:18.679Z,31.30
2018-02-20T04:14:18.787Z,30.70
2018-02-20T04:15:19.108Z,31.60
2018-02-20T04:16:19.428Z,32.50
2018-02-20T04:17:19.748Z,32.30
2018-02-20T04:18:20.068Z,33.20
2018-02-20T04:19:20.391Z,33.80
2018-02-20T04:20:20.717Z,36.20
2018-02-20T04:21:20.830Z,33.10
2018-02-20T04:22:21.150Z,33.70
2018-02-20T04:23:21.471Z,33.40
2018-02-20T04:24:21.792Z,35.20
2018-02-20T04:25:22.112Z,33.10
2018-02-20T04:26:22.439Z,30.40
2018-02-20T04:27:22.752Z,32.60
2018-02-20T04:28:23.065Z,32.90
2018-02-20T04:29:23.385Z,31.40
2018-02-20T04:30:23.694Z,33.60
2018-02-20T04:31:24.038Z,32.80
2018-02-20T04:32:24.327Z,33.90
2018-02-20T04:33:24.437Z,34.70
2018-02-20T04:34:24.754Z,35.20
2018-02-20T04:35:25.083Z,32.80
2018-02-20T04:36:25.389Z,35.20
2018-02-20T04:37:25.710Z,32.70
2018-02-20T04:38:26.030Z,33.30
2018-02-20T04:39:26.350Z,32.40
2018-02-20T04:40:26.681Z,33.20
2018-02-20T04:41:26.985Z,32.60
2018-02-20T04:42:27.305Z,34.70
2018-02-20T04:43:27.627Z,33.00
2018-02-20T04:44:27.955Z,32.90
2018-02-20T04:45:28.070Z,33.30
2018-02-20T04:46:28.201Z,33.80
2018-02-20T04:47:28.493Z,33.50
2018-02-20T04:48:28.874Z,35.40
2018-02-20T04:49:29.129Z,33.70
2018-02-20T04:50:29.450Z,35.80
2018-02-20T04:51:29.808Z,35.70
2018-02-20T04:52:30.081Z,33.90
2018-02-20T04:53:30.420Z,34.10
2018-02-20T04:54:30.729Z,35.30
2018-02-20T04:55:31.042Z,34.30
2018-02-20T04:56:31.356Z,34.20
2018-02-20T04:57:31.670Z,35.10
2018-02-20T04:58:31.988Z,35.10
2018-02-20T04:59:32.124Z,35.90
2018-02-20T05:00:32.407Z,35.40
2018-02-20T05:01:32.728Z,36.30
2018-02-20T05:02:33.036Z,32.30
2018-02-20T05:03:33.354Z,35.10
2018-02-20T05:04:33.670Z,34.80
2018-02-20T05:05:33.783Z,37.30
2018-02-20T05:06:34.101Z,36.50
2018-02-20T05:07:34.422Z,36.60
2018-02-20T05:08:34.745Z,37.70
2018-02-20T05:09:35.063Z,37.40
2018-02-20T05:10:35.383Z,34.60
2018-02-20T05:11:35.703Z,37.40
2018-02-20T05:12:36.024Z,36.80
2018-02-20T05:13:36.344Z,34.20
2018-02-20T05:14:36.673Z,35.90
2018-02-20T05:15:36.780Z,32.80
2018-02-20T05:16:37.101Z,38.10
2018-02-20T05:17:37.421Z,35.10
2018-02-20T05:18:37.740Z,36.40
2018-02-20T05:19:38.062Z,36.30
2018-02-20T05:20:38.376Z,37.20
2018-02-20T05:21:38.712Z,38.50
2018-02-20T05:22:39.015Z,36.30
2018-02-20T05:23:39.330Z,36.10
2018-02-20T05:24:39.644Z,36.50
2018-02-20T05:25:39.967Z,37.00
2018-02-20T05:26:40.285Z,38.30
2018-02-20T05:27:40.601Z,41.10
2018-02-20T05:28:40.925Z,41.00
2018-02-20T05:29:41.241Z,41.00
2018-02-20T05:30:41.567Z,38.20
2018-02-20T05:31:41.886Z,39.70
2018-02-20T05:32:42.214Z,38.60
2018-02-20T05:33:42.506Z,39.40
2018-02-20T05:34:42.829Z,37.90
2018-02-20T05:35:43.153Z,38.90
2018-02-20T05:36:43.473Z,38.30
2018-02-20T05:37:43.796Z,38.50
2018-02-20T05:38:43.909Z,36.30
2018-02-20T05:39:44.018Z,37.10
2018-02-20T05:40:44.338Z,38.40
2018-02-20T05:41:44.659Z,35.10
2018-02-20T05:42:44.979Z,37.00
2018-02-20T05:43:45.296Z,37.90
2018-02-20T05:44:45.626Z,36.50
2018-02-20T05:45:45.940Z,37.60
2018-02-20T05:46:46.252Z,38.20
2018-02-20T05:47:46.567Z,41.50
2018-02-20T05:48:46.897Z,40.10
2018-02-20T05:49:47.197Z,38.30
2018-02-20T05:50:47.512Z,39.40
2018-02-20T05:51:47.839Z,39.20
2018-02-20T05:52:48.155Z,36.50
2018-02-20T05:53:48.475Z,38.10
2018-02-20T05:54:48.796Z,41.50
2018-02-20T05:55:49.117Z,38.20
2018-02-20T05:56:49.438Z,38.30
2018-02-20T05:57:49.779Z,40.20
2018-02-20T05:58:50.077Z,38.00
2018-02-20T05:59:50.410Z,36.60
2018-02-20T06:00:50.518Z,39.50
2018-02-20T06:01:50.840Z,35.50
2018-02-20T06:02:51.161Z,37.80
2018-02-20T06:03:51.480Z,34.90
2018-02-20T06:04:51.808Z,39.60
2018-02-20T06:05:52.125Z,39.80
2018-02-20T06:06:52.439Z,38.20
2018-02-20T06:07:52.754Z,39.80
2018-02-20T06:08:53.067Z,39.70
2018-02-20T06:09:53.383Z,39.30
2018-02-20T06:10:53.700Z,37.20
2018-02-20T06:11:54.012Z,37.40
2018-02-20T06:12:54.340Z,38.60
2018-02-20T06:13:54.660Z,37.20
2018-02-20T06:14:54.981Z,40.20
2018-02-20T06:15:55.303Z,38.20
2018-02-20T06:16:55.626Z,39.50
2018-02-20T06:17:55.946Z,40.60
2018-02-20T06:18:56.274Z,40.30
2018-02-20T06:19:56.385Z,39.90
2018-02-20T06:20:56.705Z,40.40
2018-02-20T06:21:57.028Z,42.00
2018-02-20T06:22:57.349Z,41.10
2018-02-20T06:23:57.669Z,38.00
2018-02-20T06:24:57.991Z,39.90
2018-02-20T06:25:58.308Z,40.50
2018-02-20T06:26:58.623Z,41.80
2018-02-20T06:27:58.948Z,39.70
2018-02-20T06:28:59.252Z,40.60
2018-02-20T06:29:59.567Z,39.20
2018-02-20T06:30:59.892Z,37.00
2018-02-20T06:32:00.212Z,40.70
2018-02-20T06:33:00.532Z,42.60
2018-02-20T06:34:00.852Z,42.90
2018-02-20T06:35:01.173Z,40.60
2018-02-20T06:36:01.494Z,40.70
2018-02-20T06:37:01.815Z,43.10
2018-02-20T06:38:02.134Z,38.80
2018-02-20T06:39:02.468Z,37.20
2018-02-20T06:40:02.575Z,39.90
2018-02-20T06:41:02.897Z,39.30
2018-02-20T06:42:03.214Z,41.40
2018-02-20T06:43:03.537Z,42.20
2018-02-20T06:44:03.862Z,40.00
2018-02-20T06:45:04.176Z,42.80
2018-02-20T06:46:04.494Z,39.10
2018-02-20T06:47:04.810Z,41.30
2018-02-20T06:48:05.119Z,43.40
2018-02-20T06:49:05.434Z,42.70
2018-02-20T06:50:05.757Z,40.70
2018-02-20T06:51:06.067Z,43.80
2018-02-20T06:52:06.386Z,40.70
2018-02-20T06:53:06.717Z,41.80
2018-02-20T06:54:07.038Z,44.00
2018-02-20T06:55:07.358Z,43.10
2018-02-20T06:56:07.681Z,40.20
2018-02-20T06:57:08.003Z,42.80
2018-02-20T06:58:08.330Z,39.70
2018-02-20T06:59:08.553Z,40.20
2018-02-20T07:00:08.828Z,43.40
2018-02-20T07:01:08.993Z,41.30
2018-02-20T07:02:09.236Z,41.30
2018-02-20T07:03:09.559Z,42.80
2018-02-20T07:04:09.877Z,39.70
2018-02-20T07:05:10.196Z,40.20
2018-02-20T07:06:10.520Z,39.20
2018-02-20T07:07:10.840Z,43.80
2018-02-20T07:08:11.168Z,42.00
2018-02-20T07:09:11.276Z,41.90
2018-02-20T07:10:11.597Z,42.40
2018-02-20T07:11:11.916Z,42.30
2018-02-20T07:12:12.236Z,43.40
2018-02-20T07:13:12.343Z,38.40
2018-02-20T07:14:12.664Z,41.10
2018-02-20T07:15:12.994Z,38.80
2018-02-20T07:16:13.307Z,40.90
2018-02-20T07:17:13.631Z,41.70
2018-02-20T07:18:13.938Z,43.90
2018-02-20T07:19:14.250Z,41.90
2018-02-20T07:20:14.572Z,46.40
2018-02-20T07:21:14.893Z,41.70
2018-02-20T07:22:15.215Z,43.60
2018-02-20T07:23:15.536Z,40.80
2018-02-20T07:24:15.858Z,42.00
2018-02-20T07:25:16.176Z,42.60
2018-02-20T07:26:16.496Z,41.70
2018-02-20T07:27:16.818Z,40.10
2018-02-20T07:28:17.148Z,42.60
2018-02-20T07:29:17.264Z,43.10
2018-02-20T07:30:17.372Z,41.40
2018-02-20T07:31:17.693Z,41.80
2018-02-20T07:32:18.015Z,42.60
2018-02-20T07:33:18.345Z,42.90
2018-02-20T07:34:18.660Z,41.00
2018-02-20T07:35:18.973Z,42.20
2018-02-20T07:36:19.296Z,45.20
2018-02-20T07:37:19.607Z,41.80
2018-02-20T07:38:19.917Z,43.00
2018-02-20T07:39:20.235Z,42.00
2018-02-20T07:40:20.551Z,40.10
2018-02-20T07:41:20.871Z,39.30
2018-02-20T07:42:20.978Z,40.50
2018-02-20T07:43:21.299Z,40.30
2018-02-20T07:44:21.407Z,40.60
2018-02-20T07:45:21.729Z,43.20
2018-02-20T07:46:22.053Z,43.50
2018-02-20T07:47:22.363Z,41.40
2018-02-20T07:48:22.685Z,40.40
2018-02-20T07:49:23.009Z,42.10
2018-02-20T07:50:23.325Z,41.80
2018-02-20T07:51:23.645Z,41.60
2018-02-20T07:52:23.975Z,41.90
2018-02-20T07:53:24.084Z,42.00
2018-02-20T07:54:24.406Z,44.30
2018-02-20T07:55:24.728Z,47.00
2018-02-20T07:56:25.049Z,44.70
2018-02-20T07:57:25.374Z,47.60
2018-02-20T07:58:25.689Z,49.20
2018-02-20T07:59:26.012Z,49.20
2018-02-20T08:00:26.325Z,47.40
2018-02-20T08:01:26.645Z,47.90
2018-02-20T08:02:26.952Z,49.80
2018-02-20T08:03:27.269Z,50.80
2018-02-20T08:04:27.591Z,49.90
2018-02-20T08:05:27.724Z,48.00
2018-02-20T08:06:28.041Z,48.50
2018-02-20T08:07:28.343Z,48.90
2018-02-20T08:08:28.661Z,48.40
2018-02-20T08:09:28.989Z,49.90
2018-02-20T08:10:29.301Z,47.60
2018-02-20T08:11:29.619Z,48.30
2018-02-20T08:12:29.940Z,47.40
2018-02-20T08:13:30.269Z,50.80
2018-02-20T08:14:30.380Z,47.60
2018-02-20T08:15:31.050Z,45.40
2018-02-20T08:16:31.063Z,46.10
2018-02-20T08:17:31.674Z,47.60
2018-02-20T08:18:31.943Z,44.60
2018-02-20T08:19:31.989Z,47.80
2018-02-20T08:20:32.297Z,45.60
2018-02-20T08:21:32.617Z,51.80
2018-02-20T08:22:32.748Z,46.40
2018-02-20T08:23:33.057Z,48.20
2018-02-20T08:24:33.390Z,47.00
2018-02-20T08:25:33.499Z,46.90
2018-02-20T08:26:33.822Z,48.90
2018-02-20T08:27:33.932Z,47.40
2018-02-20T08:28:34.263Z,49.30
2018-02-20T08:29:34.588Z,49.60
2018-02-20T08:30:34.949Z,48.20
2018-02-20T08:31:35.067Z,47.00
2018-02-20T08:32:35.388Z,46.40
2018-02-20T08:33:35.710Z,48.10
2018-02-20T08:34:36.032Z,48.10
2018-02-20T08:35:36.363Z,45.80
2018-02-20T08:36:36.473Z,46.00
2018-02-20T08:37:36.794Z,46.50
2018-02-20T08:38:37.117Z,46.60
2018-02-20T08:39:37.441Z,46.20
2018-02-20T08:40:37.765Z,45.10
2018-02-20T08:41:38.089Z,47.60
2018-02-20T08:42:38.394Z,50.00
2018-02-20T08:43:38.711Z,47.20
2018-02-20T08:44:38.830Z,51.90
2018-02-20T08:45:39.154Z,49.20
2018-02-20T08:46:39.475Z,46.40
2018-02-20T08:47:39.797Z,47.20
2018-02-20T08:48:40.118Z,47.00
2018-02-20T08:49:40.441Z,48.60
2018-02-20T08:50:40.775Z,47.70
2018-02-20T08:51:40.884Z,49.10
2018-02-20T08:52:41.207Z,49.20
2018-02-20T08:53:41.529Z,48.50
2018-02-20T08:54:41.850Z,49.00
2018-02-20T08:55:42.173Z,49.40
2018-02-20T08:56:42.489Z,50.30
2018-02-20T08:57:42.804Z,48.90
2018-02-20T08:58:43.118Z,49.10
2018-02-20T08:59:43.439Z,49.20
2018-02-20T09:00:43.827Z,52.00
2018-02-20T09:01:44.070Z,47.00
2018-02-20T09:02:44.400Z,49.20
2018-02-20T09:03:44.720Z,46.30
2018-02-20T09:04:45.042Z,45.90
2018-02-20T09:05:45.408Z,46.10
2018-02-20T09:06:45.510Z,47.10
2018-02-20T09:07:45.834Z,46.60
2018-02-20T09:08:46.160Z,48.80
2018-02-20T09:09:46.472Z,51.60
2018-02-20T09:10:46.787Z,50.10
2018-02-20T09:11:47.101Z,50.00
2018-02-20T09:12:47.432Z,48.90
2018-02-20T09:13:47.735Z,47.70
2018-02-20T09:14:48.066Z,50.60
2018-02-20T09:15:48.385Z,50.60
2018-02-20T09:16:48.708Z,49.40
2018-02-20T09:17:49.031Z,48.10
2018-02-20T09:18:49.352Z,52.10
2018-02-20T09:19:49.683Z,49.90
2018-02-20T09:20:49.792Z,49.20
2018-02-20T09:21:50.115Z,52.10
2018-02-20T09:22:50.437Z,51.50
2018-02-20T09:23:50.760Z,52.10
2018-02-20T09:24:51.088Z,52.30
2018-02-20T09:25:51.398Z,51.00
2018-02-20T09:26:51.717Z,51.50
2018-02-20T09:27:52.080Z,51.60
2018-02-20T09:28:52.363Z,51.80
2018-02-20T09:29:52.768Z,51.20
2018-02-20T09:30:52.866Z,52.70
2018-02-20T09:31:53.186Z,52.50
2018-02-20T09:32:53.502Z,54.40
2018-02-20T09:33:53.825Z,53.30
2018-02-20T09:34:54.150Z,49.50
2018-02-20T09:35:54.261Z,50.40
2018-02-20T09:36:54.586Z,53.10
2018-02-20T09:37:54.925Z,52.10
2018-02-20T09:38:55.231Z,49.90
2018-02-20T09:39:55.562Z,51.20
2018-02-20T09:40:55.674Z,52.30
2018-02-20T09:41:55.992Z,54.60
2018-02-20T09:42:56.313Z,52.30
2018-02-20T09:43:56.638Z,50.00
2018-02-20T09:44:56.749Z,49.50
2018-02-20T09:45:57.828Z,53.60
2018-02-20T09:46:57.306Z,51.40
2018-02-20T09:47:57.416Z,53.00
2018-02-20T09:48:57.758Z,51.50
2018-02-20T09:49:57.867Z,50.30
2018-02-20T09:50:58.199Z,51.60
2018-02-20T09:51:58.513Z,47.40
2018-02-20T09:52:58.836Z,50.20
2018-02-20T09:53:59.156Z,47.30
2018-02-20T09:54:59.482Z,51.10
2018-02-20T09:55:59.805Z,50.70
2018-02-20T09:57:00.120Z,50.30
2018-02-20T09:58:00.449Z,48.90
2018-02-20T09:59:00.558Z,49.50
2018-02-20T10:00:07.814Z,48.40
2018-02-20T10:01:01.097Z,49.70
2018-02-20T10:02:01.300Z,49.70
2018-02-20T10:03:01.625Z,47.00
2018-02-20T10:04:01.980Z,47.50
2018-02-20T10:05:02.090Z,47.80
2018-02-20T10:06:02.414Z,48.30
2018-02-20T10:07:02.736Z,49.60
2018-02-20T10:08:03.076Z,50.70
2018-02-20T10:09:03.175Z,50.20
2018-02-20T10:10:03.494Z,51.10
2018-02-20T10:11:03.807Z,47.80
2018-02-20T10:12:04.130Z,47.60
2018-02-20T10:13:04.453Z,48.90
2018-02-20T10:14:04.776Z,50.40
2018-02-20T10:15:05.099Z,46.90
2018-02-20T10:16:05.428Z,51.40
2018-02-20T10:17:05.744Z,47.20
2018-02-20T10:18:06.073Z,46.50
2018-02-20T10:19:06.182Z,50.40
2018-02-20T10:20:06.507Z,49.70
2018-02-20T10:21:06.829Z,49.90
2018-02-20T10:22:07.159Z,50.10
2018-02-20T10:23:07.476Z,49.70
2018-02-20T10:24:07.790Z,47.20
2018-02-20T10:25:08.112Z,48.80
2018-02-20T10:26:08.435Z,49.00
2018-02-20T10:27:08.755Z,47.50
2018-02-20T10:28:09.081Z,47.80
2018-02-20T10:29:09.402Z,48.50
2018-02-20T10:30:09.725Z,49.00
2018-02-20T10:31:10.058Z,50.20
2018-02-20T10:32:10.227Z,48.40
2018-02-20T10:33:10.489Z,48.80
2018-02-20T10:34:10.818Z,47.20
2018-02-20T10:35:11.193Z,48.40
2018-02-20T10:36:11.457Z,46.70
2018-02-20T10:37:11.779Z,48.20
2018-02-20T10:38:12.106Z,47.10
2018-02-20T10:39:12.217Z,46.60
2018-02-20T10:40:12.535Z,47.10
2018-02-20T10:41:12.658Z,49.20
2018-02-20T10:42:12.982Z,48.30
2018-02-20T10:43:13.312Z,50.10
2018-02-20T10:44:13.424Z,51.80
2018-02-20T10:45:13.748Z,49.60
2018-02-20T10:46:14.071Z,49.00
2018-02-20T10:47:14.403Z,48.80
2018-02-20T10:48:14.719Z,49.70
2018-02-20T10:49:15.082Z,52.90
2018-02-20T10:50:15.193Z,51.00
2018-02-20T10:51:15.522Z,50.80
2018-02-20T10:52:15.635Z,49.90
2018-02-20T10:53:15.954Z,51.10
2018-02-20T10:54:16.277Z,51.60
2018-02-20T10:55:16.599Z,53.30
2018-02-20T10:56:16.927Z,52.90
2018-02-20T10:57:17.296Z,52.50
2018-02-20T10:58:17.552Z,51.20
2018-02-20T10:59:17.871Z,51.70
2018-02-20T11:00:18.184Z,49.80
2018-02-20T11:01:18.513Z,52.10
2018-02-20T11:02:18.836Z,49.10
2018-02-20T11:03:19.159Z,51.60
2018-02-20T11:04:19.484Z,52.10
2018-02-20T11:05:19.808Z,52.90
2018-02-20T11:06:20.135Z,51.70
2018-02-20T11:07:20.459Z,51.50
2018-02-20T11:08:20.780Z,51.00
2018-02-20T11:09:21.113Z,51.70
2018-02-20T11:10:21.429Z,49.20
2018-02-20T11:11:21.749Z,52.10
2018-02-20T11:12:22.060Z,52.80
2018-02-20T11:13:22.436Z,52.50
2018-02-20T11:14:22.708Z,51.30
2018-02-20T11:15:22.819Z,51.30
2018-02-20T11:16:23.140Z,50.80
2018-02-20T11:17:23.468Z,50.60
2018-02-20T11:18:23.581Z,51.90
2018-02-20T11:19:23.902Z,50.30
2018-02-20T11:20:24.228Z,50.20
2018-02-20T11:21:24.552Z,52.50
2018-02-20T11:22:24.879Z,49.10
2018-02-20T11:23:25.205Z,52.10
2018-02-20T11:24:25.521Z,46.90
2018-02-20T11:25:25.853Z,50.60
2018-02-20T11:26:26.162Z,51.20
2018-02-20T11:27:26.476Z,49.90
2018-02-20T11:28:26.790Z,50.50
2018-02-20T11:29:27.113Z,49.60
2018-02-20T11:30:27.438Z,49.40
2018-02-20T11:31:27.777Z,52.30
2018-02-20T11:32:28.084Z,51.40
2018-02-20T11:33:28.419Z,51.90
2018-02-20T11:34:28.532Z,52.20
2018-02-20T11:35:28.853Z,50.20
2018-02-20T11:36:29.177Z,51.80
2018-02-20T11:37:29.503Z,51.90
2018-02-20T11:38:29.835Z,52.00
2018-02-20T11:39:30.142Z,50.20
2018-02-20T11:40:30.466Z,50.40
2018-02-20T11:41:30.780Z,53.20
2018-02-20T11:42:31.115Z,50.00
2018-02-20T11:43:31.446Z,50.80
2018-02-20T11:44:31.570Z,50.40
2018-02-20T11:45:31.694Z,46.70
2018-02-20T11:46:32.027Z,49.90
2018-02-20T11:47:32.218Z,45.50
2018-02-20T11:48:32.463Z,46.30
2018-02-20T11:49:32.784Z,45.90
2018-02-20T11:50:33.105Z,45.90
2018-02-20T11:51:33.220Z,46.30
2018-02-20T11:52:33.541Z,46.30
2018-02-20T11:53:33.869Z,44.70
2018-02-20T11:54:34.200Z,43.50
2018-02-20T11:55:34.311Z,44.40
2018-02-20T11:56:34.636Z,46.00
2018-02-20T11:57:34.954Z,46.80
2018-02-20T11:58:35.286Z,47.10
2018-02-20T11:59:35.604Z,47.60
2018-02-20T12:00:35.944Z,47.70
2018-02-20T12:01:36.622Z,45.50
2018-02-20T12:02:36.370Z,46.30
2018-02-20T12:03:36.747Z,47.60
2018-02-20T12:04:37.018Z,46.70
2018-02-20T12:05:37.199Z,48.40
2018-02-20T12:06:37.301Z,50.70
2018-02-20T12:07:37.635Z,50.10
2018-02-20T12:08:38.878Z,51.30
2018-02-20T12:09:38.096Z,52.90
2018-02-20T12:10:38.422Z,51.40
2018-02-20T12:11:38.747Z,51.00
2018-02-20T12:12:39.076Z,51.90
2018-02-20T12:13:39.398Z,51.00
2018-02-20T12:14:39.810Z,51.10
2018-02-20T12:15:40.203Z,50.30
2018-02-20T12:17:40.359Z,50.60
2018-02-20T12:18:40.673Z,52.70
2018-02-20T12:19:41.073Z,51.60
2018-02-20T12:20:47.854Z,50.80
2018-02-20T12:22:41.682Z,53.00
2018-02-20T12:23:42.079Z,50.60
2018-02-20T12:24:42.353Z,51.70
2018-02-20T12:25:42.626Z,53.20
2018-02-20T12:26:42.960Z,53.70
2018-02-20T12:27:43.317Z,55.00
2018-02-20T12:28:43.610Z,51.00
2018-02-20T12:29:43.914Z,49.80
2018-02-20T12:30:44.309Z,49.50
2018-02-20T12:31:44.546Z,48.60
2018-02-20T12:32:44.879Z,47.70
2018-02-20T12:33:45.196Z,44.10
2018-02-20T12:34:45.517Z,48.30
2018-02-20T12:35:45.884Z,46.40
2018-02-20T12:36:45.992Z,49.40
2018-02-20T12:37:46.328Z,48.50
2018-02-20T12:38:46.632Z,48.40
2018-02-20T12:39:46.963Z,47.00
2018-02-20T12:40:47.270Z,47.30
2018-02-20T12:41:48.332Z,46.80
2018-02-20T12:42:47.787Z,46.40
2018-02-20T12:43:48.169Z,47.70
2018-02-20T12:44:48.226Z,49.20
2018-02-20T12:45:48.579Z,46.30
2018-02-20T12:46:48.877Z,48.50
2018-02-20T12:47:49.224Z,51.20
2018-02-20T12:48:50.298Z,48.90
2018-02-20T12:49:49.586Z,48.30
2018-02-20T12:50:49.909Z,51.00
2018-02-20T12:51:50.237Z,50.50
2018-02-20T12:52:50.562Z,50.30
2018-02-20T12:53:51.284Z,51.10
2018-02-20T12:54:51.128Z,53.10
2018-02-20T12:55:51.458Z,54.70
2018-02-20T12:56:51.781Z,49.30
2018-02-20T12:57:52.093Z,50.50